sensor_id;sensor_type;location;lat;lon;timestamp;pressure;altitude;pressure_sealevel;temperature;humidity
32033;BME280;31720;52.638;9.216;2023-01-26T00:00:37;102192.53;;;-1.41;100.00
32033;BME280;31720;52.638;9.216;2023-01-26T00:03:38;102180.56;;;-1.38;100.00
32033;BME280;31720;52.638;9.216;2023-01-26T00:06:40;102171.03;;;-1.43;100.00
32033;BME280;31720;52.638;9.216;2023-01-26T00:09:41;102176.19;;;-1.42;100.00
32033;BME280;31720;52.638;9.216;2023-01-26T00:12:43;102178.75;;;-1.43;100.00
32033;BME280;31720;52.638;9.216;2023-01-26T00:15:45;102175.47;;;-1.36;100.00
32033;BME280;31720;52.638;9.216;2023-01-26T00:18:46;102172.88;;;-1.36;100.00
32033;BME280;31720;52.638;9.216;2023-01-26T00:21:47;102170.25;;;-1.39;100.00
32033;BME280;31720;52.638;9.216;2023-01-26T00:24:49;102176.25;;;-1.39;100.00
32033;BME280;31720;52.638;9.216;2023-01-26T00:27:51;102174.47;;;-1.41;100.00
32033;BME280;31720;52.638;9.216;2023-01-26T00:30:53;102167.34;;;-1.55;100.00
32033;BME280;31720;52.638;9.216;2023-01-26T00:33:55;102156.31;;;-1.49;100.00
32033;BME280;31720;52.638;9.216;2023-01-26T00:36:56;102157.25;;;-1.44;100.00
32033;BME280;31720;52.638;9.216;2023-01-26T00:39:57;102154.50;;;-1.53;100.00
32033;BME280;31720;52.638;9.216;2023-01-26T00:43:00;102146.81;;;-1.51;100.00
32033;BME280;31720;52.638;9.216;2023-01-26T00:46:01;102152.03;;;-1.47;100.00
32033;BME280;31720;52.638;9.216;2023-01-26T00:49:03;102152.97;;;-1.45;100.00
32033;BME280;31720;52.638;9.216;2023-01-26T00:52:05;102140.88;;;-1.46;100.00
32033;BME280;31720;52.638;9.216;2023-01-26T00:55:07;102147.03;;;-1.39;100.00
32033;BME280;31720;52.638;9.216;2023-01-26T00:58:09;102148.78;;;-1.37;100.00
32033;BME280;31720;52.638;9.216;2023-01-26T01:01:11;102159.84;;;-1.42;100.00
32033;BME280;31720;52.638;9.216;2023-01-26T01:04:12;102156.94;;;-1.61;100.00
32033;BME280;31720;52.638;9.216;2023-01-26T01:07:14;102167.50;;;-1.48;100.00
32033;BME280;31720;52.638;9.216;2023-01-26T01:10:15;102158.03;;;-1.49;100.00
32033;BME280;31720;52.638;9.216;2023-01-26T01:13:18;102149.47;;;-1.45;100.00
32033;BME280;31720;52.638;9.216;2023-01-26T01:16:19;102149.34;;;-1.53;100.00
32033;BME280;31720;52.638;9.216;2023-01-26T01:19:21;102149.41;;;-1.50;100.00
32033;BME280;31720;52.638;9.216;2023-01-26T01:22:22;102147.72;;;-1.49;100.00
32033;BME280;31720;52.638;9.216;2023-01-26T01:25:23;102144.47;;;-1.39;100.00
32033;BME280;31720;52.638;9.216;2023-01-26T01:28:26;102147.06;;;-1.38;100.00
32033;BME280;31720;52.638;9.216;2023-01-26T01:31:28;102133.28;;;-1.40;100.00
32033;BME280;31720;52.638;9.216;2023-01-26T01:34:29;102126.03;;;-1.59;100.00
32033;BME280;31720;52.638;9.216;2023-01-26T01:37:31;102125.06;;;-1.66;100.00
32033;BME280;31720;52.638;9.216;2023-01-26T01:40:33;102122.63;;;-1.58;100.00
32033;BME280;31720;52.638;9.216;2023-01-26T01:43:36;102117.25;;;-1.70;100.00
32033;BME280;31720;52.638;9.216;2023-01-26T01:46:38;102113.94;;;-1.63;100.00
32033;BME280;31720;52.638;9.216;2023-01-26T01:49:45;102110.47;;;-1.64;100.00
32033;BME280;31720;52.638;9.216;2023-01-26T01:52:47;102118.38;;;-1.55;100.00
32033;BME280;31720;52.638;9.216;2023-01-26T01:55:51;102113.28;;;-1.53;100.00
32033;BME280;31720;52.638;9.216;2023-01-26T01:58:57;102116.72;;;-1.52;100.00
32033;BME280;31720;52.638;9.216;2023-01-26T02:01:59;102121.00;;;-1.53;100.00
32033;BME280;31720;52.638;9.216;2023-01-26T02:05:06;102110.72;;;-1.51;100.00
32033;BME280;31720;52.638;9.216;2023-01-26T02:08:12;102104.78;;;-1.46;100.00
32033;BME280;31720;52.638;9.216;2023-01-26T02:11:16;102097.03;;;-1.47;100.00
32033;BME280;31720;52.638;9.216;2023-01-26T02:14:21;102100.38;;;-1.53;100.00
32033;BME280;31720;52.638;9.216;2023-01-26T02:17:23;102095.31;;;-1.47;100.00
32033;BME280;31720;52.638;9.216;2023-01-26T02:20:30;102094.59;;;-1.40;100.00
32033;BME280;31720;52.638;9.216;2023-01-26T02:23:40;102089.47;;;-1.38;100.00
32033;BME280;31720;52.638;9.216;2023-01-26T02:26:47;102086.97;;;-1.34;100.00
32033;BME280;31720;52.638;9.216;2023-01-26T02:29:49;102092.19;;;-1.29;100.00
32033;BME280;31720;52.638;9.216;2023-01-26T02:32:51;102093.84;;;-1.34;100.00
32033;BME280;31720;52.638;9.216;2023-01-26T02:35:53;102091.03;;;-1.46;100.00
32033;BME280;31720;52.638;9.216;2023-01-26T02:39:05;102088.53;;;-1.43;100.00
32033;BME280;31720;52.638;9.216;2023-01-26T02:42:12;102092.03;;;-1.40;100.00
32033;BME280;31720;52.638;9.216;2023-01-26T02:45:39;102092.97;;;-1.35;100.00
32033;BME280;31720;52.638;9.216;2023-01-26T02:48:41;102096.50;;;-1.30;100.00
32033;BME280;31720;52.638;9.216;2023-01-26T02:52:00;102087.09;;;-1.26;100.00
32033;BME280;31720;52.638;9.216;2023-01-26T02:55:01;102084.63;;;-1.18;100.00
32033;BME280;31720;52.638;9.216;2023-01-26T02:58:21;102088.09;;;-1.18;100.00
32033;BME280;31720;52.638;9.216;2023-01-26T03:01:23;102086.47;;;-1.13;100.00
32033;BME280;31720;52.638;9.216;2023-01-26T03:04:25;102087.28;;;-1.15;100.00
32033;BME280;31720;52.638;9.216;2023-01-26T03:07:26;102088.28;;;-1.07;100.00
32033;BME280;31720;52.638;9.216;2023-01-26T03:10:27;102081.19;;;-1.19;100.00
32033;BME280;31720;52.638;9.216;2023-01-26T03:13:30;102080.38;;;-1.16;100.00
32033;BME280;31720;52.638;9.216;2023-01-26T03:16:31;102072.72;;;-1.12;100.00
32033;BME280;31720;52.638;9.216;2023-01-26T03:19:33;102071.06;;;-1.08;100.00
32033;BME280;31720;52.638;9.216;2023-01-26T03:22:52;102073.66;;;-1.08;100.00
32033;BME280;31720;52.638;9.216;2023-01-26T03:26:11;102069.28;;;-1.11;100.00
32033;BME280;31720;52.638;9.216;2023-01-26T03:29:31;102067.63;;;-1.09;100.00
32033;BME280;31720;52.638;9.216;2023-01-26T03:32:33;102068.56;;;-1.04;100.00
32033;BME280;31720;52.638;9.216;2023-01-26T03:35:34;102071.09;;;-1.05;100.00
32033;BME280;31720;52.638;9.216;2023-01-26T03:38:36;102064.19;;;-1.08;100.00
32033;BME280;31720;52.638;9.216;2023-01-26T03:41:37;102066.78;;;-1.06;100.00
32033;BME280;31720;52.638;9.216;2023-01-26T03:44:57;102057.38;;;-1.04;100.00
32033;BME280;31720;52.638;9.216;2023-01-26T03:48:16;102067.63;;;-1.07;100.00
32033;BME280;31720;52.638;9.216;2023-01-26T03:51:35;102060.84;;;-1.02;100.00
32033;BME280;31720;52.638;9.216;2023-01-26T03:54:54;102056.16;;;-1.26;100.00
32033;BME280;31720;52.638;9.216;2023-01-26T03:58:13;102056.31;;;-1.15;100.00
32033;BME280;31720;52.638;9.216;2023-01-26T04:01:16;102058.13;;;-1.10;100.00
32033;BME280;31720;52.638;9.216;2023-01-26T04:04:20;102065.06;;;-1.06;100.00
32033;BME280;31720;52.638;9.216;2023-01-26T04:07:40;102063.34;;;-1.05;100.00
32033;BME280;31720;52.638;9.216;2023-01-26T04:10:59;102064.91;;;-1.18;100.00
32033;BME280;31720;52.638;9.216;2023-01-26T04:14:00;102063.06;;;-1.23;100.00
32033;BME280;31720;52.638;9.216;2023-01-26T04:17:20;102057.09;;;-1.22;100.00
32033;BME280;31720;52.638;9.216;2023-01-26T04:20:39;102057.97;;;-1.20;100.00
32033;BME280;31720;52.638;9.216;2023-01-26T04:23:58;102051.94;;;-1.21;100.00
32033;BME280;31720;52.638;9.216;2023-01-26T04:27:00;102048.31;;;-1.32;100.00
32033;BME280;31720;52.638;9.216;2023-01-26T04:30:02;102043.97;;;-1.36;100.00
32033;BME280;31720;52.638;9.216;2023-01-26T04:33:04;102042.34;;;-1.28;100.00
32033;BME280;31720;52.638;9.216;2023-01-26T04:36:07;102032.19;;;-1.19;100.00
32033;BME280;31720;52.638;9.216;2023-01-26T04:39:09;102024.38;;;-1.23;100.00
32033;BME280;31720;52.638;9.216;2023-01-26T04:42:10;102032.19;;;-1.19;100.00
32033;BME280;31720;52.638;9.216;2023-01-26T04:45:11;102020.13;;;-1.20;100.00
32033;BME280;31720;52.638;9.216;2023-01-26T04:48:14;102014.00;;;-1.28;100.00
32033;BME280;31720;52.638;9.216;2023-01-26T04:51:17;102022.56;;;-1.29;100.00
32033;BME280;31720;52.638;9.216;2023-01-26T04:54:18;102038.06;;;-1.28;100.00
32033;BME280;31720;52.638;9.216;2023-01-26T04:57:19;102034.88;;;-1.13;100.00
32033;BME280;31720;52.638;9.216;2023-01-26T05:00:22;102030.44;;;-1.21;100.00
32033;BME280;31720;52.638;9.216;2023-01-26T05:03:25;102025.16;;;-1.29;100.00
32033;BME280;31720;52.638;9.216;2023-01-26T05:06:27;102021.72;;;-1.30;100.00
32033;BME280;31720;52.638;9.216;2023-01-26T05:09:28;102026.03;;;-1.29;100.00
32033;BME280;31720;52.638;9.216;2023-01-26T05:12:30;102017.56;;;-1.20;100.00
32033;BME280;31720;52.638;9.216;2023-01-26T05:15:34;102018.47;;;-1.16;100.00
32033;BME280;31720;52.638;9.216;2023-01-26T05:18:36;102006.38;;;-1.22;100.00
32033;BME280;31720;52.638;9.216;2023-01-26T05:21:38;102010.69;;;-1.21;100.00
32033;BME280;31720;52.638;9.216;2023-01-26T05:24:39;102014.19;;;-1.17;100.00
32033;BME280;31720;52.638;9.216;2023-01-26T05:27:40;102023.56;;;-1.21;100.00
32033;BME280;31720;52.638;9.216;2023-01-26T05:30:42;102019.34;;;-1.16;100.00
32033;BME280;31720;52.638;9.216;2023-01-26T05:33:45;102010.75;;;-1.16;100.00
32033;BME280;31720;52.638;9.216;2023-01-26T05:36:46;102013.41;;;-1.10;100.00
32033;BME280;31720;52.638;9.216;2023-01-26T05:39:48;102018.63;;;-1.07;100.00
32033;BME280;31720;52.638;9.216;2023-01-26T05:42:49;102015.25;;;-1.02;100.00
32033;BME280;31720;52.638;9.216;2023-01-26T05:45:50;102016.97;;;-1.02;100.00
32033;BME280;31720;52.638;9.216;2023-01-26T05:48:53;102016.91;;;-1.08;100.00
32033;BME280;31720;52.638;9.216;2023-01-26T05:51:55;102017.84;;;-1.02;100.00
32033;BME280;31720;52.638;9.216;2023-01-26T05:54:56;102022.16;;;-1.00;100.00
32033;BME280;31720;52.638;9.216;2023-01-26T05:57:57;102029.94;;;-0.99;100.00
32033;BME280;31720;52.638;9.216;2023-01-26T06:01:03;102032.53;;;-0.96;100.00
32033;BME280;31720;52.638;9.216;2023-01-26T06:04:05;102030.59;;;-1.12;100.00
32033;BME280;31720;52.638;9.216;2023-01-26T06:07:08;102029.00;;;-1.03;100.00
32033;BME280;31720;52.638;9.216;2023-01-26T06:10:10;102040.25;;;-0.99;100.00
32033;BME280;31720;52.638;9.216;2023-01-26T06:13:12;102029.09;;;-0.96;100.00
32033;BME280;31720;52.638;9.216;2023-01-26T06:16:13;102034.31;;;-0.93;100.00
32033;BME280;31720;52.638;9.216;2023-01-26T06:19:16;102024.78;;;-0.97;100.00
32033;BME280;31720;52.638;9.216;2023-01-26T06:22:17;102027.31;;;-1.00;100.00
32033;BME280;31720;52.638;9.216;2023-01-26T06:25:19;102024.72;;;-1.00;100.00
32033;BME280;31720;52.638;9.216;2023-01-26T06:28:20;102033.38;;;-0.97;100.00
32033;BME280;31720;52.638;9.216;2023-01-26T06:31:21;102029.88;;;-1.00;100.00
32033;BME280;31720;52.638;9.216;2023-01-26T06:34:25;102039.44;;;-0.95;100.00
32033;BME280;31720;52.638;9.216;2023-01-26T06:37:27;102029.06;;;-0.99;100.00
32033;BME280;31720;52.638;9.216;2023-01-26T06:40:28;102024.78;;;-0.99;100.00
32033;BME280;31720;52.638;9.216;2023-01-26T06:43:30;102031.81;;;-0.87;100.00
32033;BME280;31720;52.638;9.216;2023-01-26T06:46:31;102035.22;;;-0.90;100.00
32033;BME280;31720;52.638;9.216;2023-01-26T06:49:34;102033.31;;;-1.00;100.00
32033;BME280;31720;52.638;9.216;2023-01-26T06:52:35;102028.22;;;-0.97;100.00
32033;BME280;31720;52.638;9.216;2023-01-26T06:55:37;102036.09;;;-0.89;100.00
32033;BME280;31720;52.638;9.216;2023-01-26T06:58:40;102040.25;;;-0.99;100.00
32033;BME280;31720;52.638;9.216;2023-01-26T07:01:43;102038.69;;;-0.88;100.00
32033;BME280;31720;52.638;9.216;2023-01-26T07:04:48;102037.00;;;-0.86;100.00
32033;BME280;31720;52.638;9.216;2023-01-26T07:07:49;102035.19;;;-0.91;100.00
32033;BME280;31720;52.638;9.216;2023-01-26T07:10:51;102039.53;;;-0.90;100.00
32033;BME280;31720;52.638;9.216;2023-01-26T07:13:52;102034.44;;;-0.83;100.00
32033;BME280;31720;52.638;9.216;2023-01-26T07:16:53;102030.19;;;-0.79;100.00
32033;BME280;31720;52.638;9.216;2023-01-26T07:19:56;102043.13;;;-0.78;100.00
32033;BME280;31720;52.638;9.216;2023-01-26T07:22:58;102035.38;;;-0.79;100.00
32033;BME280;31720;52.638;9.216;2023-01-26T07:25:59;102036.34;;;-0.69;100.00
32033;BME280;31720;52.638;9.216;2023-01-26T07:29:01;102042.38;;;-0.69;100.00
32033;BME280;31720;52.638;9.216;2023-01-26T07:32:02;102047.53;;;-0.70;100.00
32033;BME280;31720;52.638;9.216;2023-01-26T07:35:06;102047.59;;;-0.66;100.00
32033;BME280;31720;52.638;9.216;2023-01-26T07:38:07;102051.78;;;-0.74;100.00
32033;BME280;31720;52.638;9.216;2023-01-26T07:41:11;102050.84;;;-0.78;100.00
32033;BME280;31720;52.638;9.216;2023-01-26T07:44:13;102046.56;;;-0.79;100.00
32033;BME280;31720;52.638;9.216;2023-01-26T07:47:15;102043.22;;;-0.71;100.00
32033;BME280;31720;52.638;9.216;2023-01-26T07:50:17;102053.56;;;-0.70;100.00
32033;BME280;31720;52.638;9.216;2023-01-26T07:53:20;102060.44;;;-0.70;100.00
32033;BME280;31720;52.638;9.216;2023-01-26T07:56:21;102052.69;;;-0.70;100.00
32033;BME280;31720;52.638;9.216;2023-01-26T07:59:23;102050.97;;;-0.71;100.00
32033;BME280;31720;52.638;9.216;2023-01-26T08:02:24;102055.28;;;-0.72;100.00
32033;BME280;31720;52.638;9.216;2023-01-26T08:05:27;102054.34;;;-0.74;100.00
32033;BME280;31720;52.638;9.216;2023-01-26T08:08:28;102054.34;;;-0.74;100.00
32033;BME280;31720;52.638;9.216;2023-01-26T08:11:30;102054.41;;;-0.72;100.00
32033;BME280;31720;52.638;9.216;2023-01-26T08:14:31;102053.63;;;-0.67;100.00
32033;BME280;31720;52.638;9.216;2023-01-26T08:17:32;102060.44;;;-0.70;100.00
32033;BME280;31720;52.638;9.216;2023-01-26T08:20:35;102063.00;;;-0.72;100.00
32033;BME280;31720;52.638;9.216;2023-01-26T08:23:36;102061.31;;;-0.70;100.00
32033;BME280;31720;52.638;9.216;2023-01-26T08:26:38;102062.22;;;-0.66;100.00
32033;BME280;31720;52.638;9.216;2023-01-26T08:29:39;102061.44;;;-0.59;100.00
32033;BME280;31720;52.638;9.216;2023-01-26T08:32:40;102052.75;;;-0.66;100.00
32033;BME280;31720;52.638;9.216;2023-01-26T08:35:43;102056.09;;;-0.73;100.00
32033;BME280;31720;52.638;9.216;2023-01-26T08:38:44;102058.78;;;-0.64;100.00
32033;BME280;31720;52.638;9.216;2023-01-26T08:41:46;102057.06;;;-0.66;100.00
32033;BME280;31720;52.638;9.216;2023-01-26T08:44:47;102058.84;;;-0.62;100.00
32033;BME280;31720;52.638;9.216;2023-01-26T08:47:49;102063.22;;;-0.57;100.00
32033;BME280;31720;52.638;9.216;2023-01-26T08:50:54;102063.28;;;-0.52;100.00
32033;BME280;31720;52.638;9.216;2023-01-26T08:53:56;102067.50;;;-0.57;100.00
32033;BME280;31720;52.638;9.216;2023-01-26T08:56:57;102067.50;;;-0.57;100.00
32033;BME280;31720;52.638;9.216;2023-01-26T08:59:58;102063.22;;;-0.57;100.00
32033;BME280;31720;52.638;9.216;2023-01-26T09:03:00;102073.59;;;-0.51;100.00
32033;BME280;31720;52.638;9.216;2023-01-26T09:06:05;102068.50;;;-0.49;100.00
32033;BME280;31720;52.638;9.216;2023-01-26T09:09:07;102079.63;;;-0.52;100.00
32033;BME280;31720;52.638;9.216;2023-01-26T09:12:12;102065.91;;;-0.47;100.00
32033;BME280;31720;52.638;9.216;2023-01-26T09:15:13;102070.22;;;-0.46;100.00
32033;BME280;31720;52.638;9.216;2023-01-26T09:18:14;102062.47;;;-0.48;100.00
32033;BME280;31720;52.638;9.216;2023-01-26T09:21:18;102070.22;;;-0.49;100.00
32033;BME280;31720;52.638;9.216;2023-01-26T09:24:20;102074.50;;;-0.48;100.00
32033;BME280;31720;52.638;9.216;2023-01-26T09:27:21;102078.00;;;-0.45;100.00
32033;BME280;31720;52.638;9.216;2023-01-26T09:30:23;102072.84;;;-0.45;100.00
32033;BME280;31720;52.638;9.216;2023-01-26T09:33:24;102072.81;;;-0.46;100.00
32033;BME280;31720;52.638;9.216;2023-01-26T09:36:27;102071.94;;;-0.47;100.00
32033;BME280;31720;52.638;9.216;2023-01-26T09:39:28;102066.84;;;-0.42;100.00
32033;BME280;31720;52.638;9.216;2023-01-26T09:42:38;102062.53;;;-0.43;100.00
32033;BME280;31720;52.638;9.216;2023-01-26T09:45:47;102068.63;;;-0.37;100.00
32033;BME280;31720;52.638;9.216;2023-01-26T09:49:01;102056.72;;;-0.27;100.00
32033;BME280;31720;52.638;9.216;2023-01-26T09:52:12;102060.19;;;-0.23;100.00
32033;BME280;31720;52.638;9.216;2023-01-26T09:55:18;102057.66;;;-0.19;100.00
32033;BME280;31720;52.638;9.216;2023-01-26T09:58:25;102055.94;;;-0.18;100.00
32033;BME280;31720;52.638;9.216;2023-01-26T10:01:35;102061.03;;;-0.24;100.00
32033;BME280;31720;52.638;9.216;2023-01-26T10:04:39;102055.88;;;-0.26;100.00
32033;BME280;31720;52.638;9.216;2023-01-26T10:07:45;102051.69;;;-0.15;100.00
32033;BME280;31720;52.638;9.216;2023-01-26T10:10:48;102056.03;;;-0.09;100.00
32033;BME280;31720;52.638;9.216;2023-01-26T10:13:54;102053.50;;;-0.08;100.00
32033;BME280;31720;52.638;9.216;2023-01-26T10:16:58;102056.03;;;-0.12;100.00
32033;BME280;31720;52.638;9.216;2023-01-26T10:20:06;102055.19;;;-0.10;100.00
32033;BME280;31720;52.638;9.216;2023-01-26T10:23:13;102051.66;;;-0.18;100.00
32033;BME280;31720;52.638;9.216;2023-01-26T10:26:18;102055.94;;;-0.21;100.00
32033;BME280;31720;52.638;9.216;2023-01-26T10:29:20;102049.09;;;-0.18;100.00
32033;BME280;31720;52.638;9.216;2023-01-26T10:32:22;102037.09;;;-0.13;100.00
32033;BME280;31720;52.638;9.216;2023-01-26T10:35:24;102039.56;;;-0.22;100.00
32033;BME280;31720;52.638;9.216;2023-01-26T10:38:37;102031.81;;;-0.20;100.00
32033;BME280;31720;52.638;9.216;2023-01-26T10:41:39;102031.88;;;-0.17;100.00
32033;BME280;31720;52.638;9.216;2023-01-26T10:44:41;102026.66;;;-0.19;100.00
32033;BME280;31720;52.638;9.216;2023-01-26T10:48:01;102028.47;;;-0.10;100.00
32033;BME280;31720;52.638;9.216;2023-01-26T10:51:14;102021.63;;;-0.08;100.00
32033;BME280;31720;52.638;9.216;2023-01-26T10:54:21;102017.34;;;-0.06;100.00
32033;BME280;31720;52.638;9.216;2023-01-26T10:57:26;102018.28;;;0.01;100.00
32033;BME280;31720;52.638;9.216;2023-01-26T11:00:30;102014.78;;;-0.03;100.00
32033;BME280;31720;52.638;9.216;2023-01-26T11:03:32;102020.00;;;0.03;100.00
32033;BME280;31720;52.638;9.216;2023-01-26T11:06:33;102020.81;;;-0.04;100.00
32033;BME280;31720;52.638;9.216;2023-01-26T11:09:36;102016.47;;;-0.05;100.00
32033;BME280;31720;52.638;9.216;2023-01-26T11:12:37;102025.09;;;-0.08;100.00
32033;BME280;31720;52.638;9.216;2023-01-26T11:15:40;102025.09;;;-0.05;100.00
32033;BME280;31720;52.638;9.216;2023-01-26T11:18:52;102014.84;;;0.02;100.00
32033;BME280;31720;52.638;9.216;2023-01-26T11:21:58;102016.56;;;0.03;100.00
32033;BME280;31720;52.638;9.216;2023-01-26T11:25:14;102017.53;;;0.09;100.00
32033;BME280;31720;52.638;9.216;2023-01-26T11:28:30;102019.19;;;0.07;100.00
32033;BME280;31720;52.638;9.216;2023-01-26T11:31:41;102010.59;;;0.07;100.00
32033;BME280;31720;52.638;9.216;2023-01-26T11:34:53;102008.81;;;0.04;100.00
32033;BME280;31720;52.638;9.216;2023-01-26T11:38:07;102000.19;;;0.01;100.00
32033;BME280;31720;52.638;9.216;2023-01-26T11:41:19;101999.38;;;0.05;100.00
32033;BME280;31720;52.638;9.216;2023-01-26T11:44:49;102004.50;;;0.02;100.00
32033;BME280;31720;52.638;9.216;2023-01-26T11:48:07;101999.38;;;0.08;100.00
32033;BME280;31720;52.638;9.216;2023-01-26T11:51:19;101999.47;;;0.15;100.00
32033;BME280;31720;52.638;9.216;2023-01-26T11:54:38;102001.06;;;0.04;100.00
32033;BME280;31720;52.638;9.216;2023-01-26T11:57:49;102003.66;;;0.04;100.00
32033;BME280;31720;52.638;9.216;2023-01-26T12:00:55;101995.13;;;0.11;100.00
32033;BME280;31720;52.638;9.216;2023-01-26T12:03:57;101990.81;;;0.12;100.00
32033;BME280;31720;52.638;9.216;2023-01-26T12:07:04;101988.28;;;0.18;100.00
32033;BME280;31720;52.638;9.216;2023-01-26T12:10:11;101986.59;;;0.21;100.00
32033;BME280;31720;52.638;9.216;2023-01-26T12:13:20;101976.25;;;0.20;100.00
32033;BME280;31720;52.638;9.216;2023-01-26T12:16:32;101968.50;;;0.18;100.00
32033;BME280;31720;52.638;9.216;2023-01-26T12:19:42;101967.63;;;0.21;100.00
32033;BME280;31720;52.638;9.216;2023-01-26T12:22:48;101965.94;;;0.24;100.00
32033;BME280;31720;52.638;9.216;2023-01-26T12:25:54;101956.47;;;0.23;100.00
32033;BME280;31720;52.638;9.216;2023-01-26T12:29:02;101956.44;;;0.20;100.00
32033;BME280;31720;52.638;9.216;2023-01-26T12:32:11;101956.47;;;0.23;100.00
32033;BME280;31720;52.638;9.216;2023-01-26T12:35:13;101948.75;;;0.28;100.00
32033;BME280;31720;52.638;9.216;2023-01-26T12:38:30;101948.75;;;0.28;100.00
32033;BME280;31720;52.638;9.216;2023-01-26T12:41:45;101934.09;;;0.30;100.00
32033;BME280;31720;52.638;9.216;2023-01-26T12:44:52;101928.94;;;0.32;100.00
32033;BME280;31720;52.638;9.216;2023-01-26T12:48:05;101938.50;;;0.37;100.00
32033;BME280;31720;52.638;9.216;2023-01-26T12:51:10;101935.00;;;0.34;100.00
32033;BME280;31720;52.638;9.216;2023-01-26T12:54:19;101941.94;;;0.38;100.00
32033;BME280;31720;52.638;9.216;2023-01-26T12:57:29;101930.78;;;0.45;100.00
32033;BME280;31720;52.638;9.216;2023-01-26T13:00:34;101922.22;;;0.54;100.00
32033;BME280;31720;52.638;9.216;2023-01-26T13:03:39;101929.97;;;0.52;100.00
32033;BME280;31720;52.638;9.216;2023-01-26T13:06:42;101917.91;;;0.54;100.00
32033;BME280;31720;52.638;9.216;2023-01-26T13:10:07;101913.66;;;0.61;100.00
32033;BME280;31720;52.638;9.216;2023-01-26T13:13:28;101917.97;;;0.63;100.00
32033;BME280;31720;52.638;9.216;2023-01-26T13:16:32;101924.81;;;0.58;100.00
32033;BME280;31720;52.638;9.216;2023-01-26T13:19:36;101916.22;;;0.58;100.00
32033;BME280;31720;52.638;9.216;2023-01-26T13:22:52;101922.28;;;0.60;100.00
32033;BME280;31720;52.638;9.216;2023-01-26T13:26:14;101920.59;;;0.65;100.00
32033;BME280;31720;52.638;9.216;2023-01-26T13:29:28;101925.75;;;0.68;100.00
32033;BME280;31720;52.638;9.216;2023-01-26T13:33:00;101920.56;;;0.68;100.00
32033;BME280;31720;52.638;9.216;2023-01-26T13:36:03;101935.25;;;0.70;100.00
32033;BME280;31720;52.638;9.216;2023-01-26T13:39:11;101930.94;;;0.72;100.00
32033;BME280;31720;52.638;9.216;2023-01-26T13:42:18;101930.97;;;0.75;100.00
32033;BME280;31720;52.638;9.216;2023-01-26T13:45:26;101930.16;;;0.80;100.00
32033;BME280;31720;52.638;9.216;2023-01-26T13:48:40;101922.41;;;0.84;100.00
32033;BME280;31720;52.638;9.216;2023-01-26T13:51:44;101932.78;;;0.87;100.00
32033;BME280;31720;52.638;9.216;2023-01-26T13:54:45;101929.34;;;0.90;100.00
32033;BME280;31720;52.638;9.216;2023-01-26T13:57:47;101927.66;;;0.92;100.00
32033;BME280;31720;52.638;9.216;2023-01-26T14:00:57;101931.13;;;0.95;100.00
32033;BME280;31720;52.638;9.216;2023-01-26T14:04:05;101933.72;;;1.00;100.00
32033;BME280;31720;52.638;9.216;2023-01-26T14:07:11;101932.84;;;1.04;100.00
32033;BME280;31720;52.638;9.216;2023-01-26T14:10:16;101930.31;;;1.06;100.00
32033;BME280;31720;52.638;9.216;2023-01-26T14:13:21;101938.06;;;1.09;100.00
32033;BME280;31720;52.638;9.216;2023-01-26T14:16:28;101936.34;;;1.11;100.00
32033;BME280;31720;52.638;9.216;2023-01-26T14:19:31;101937.22;;;1.11;100.00
32033;BME280;31720;52.638;9.216;2023-01-26T14:22:32;101944.13;;;1.12;100.00
32033;BME280;31720;52.638;9.216;2023-01-26T14:25:33;101943.25;;;1.12;100.00
32033;BME280;31720;52.638;9.216;2023-01-26T14:28:36;101946.75;;;1.14;100.00
32033;BME280;31720;52.638;9.216;2023-01-26T14:31:40;101940.69;;;1.16;100.00
32033;BME280;31720;52.638;9.216;2023-01-26T14:34:52;101948.50;;;1.19;100.00
32033;BME280;31720;52.638;9.216;2023-01-26T14:38:04;101944.16;;;1.21;100.00
32033;BME280;31720;52.638;9.216;2023-01-26T14:41:09;101943.31;;;1.24;100.00
32033;BME280;31720;52.638;9.216;2023-01-26T14:44:13;101943.31;;;1.27;100.00
32033;BME280;31720;52.638;9.216;2023-01-26T14:47:17;101953.69;;;1.29;100.00
32033;BME280;31720;52.638;9.216;2023-01-26T14:50:24;101950.25;;;1.30;100.00
32033;BME280;31720;52.638;9.216;2023-01-26T14:53:27;101951.09;;;1.30;100.00
32033;BME280;31720;52.638;9.216;2023-01-26T14:56:32;101955.44;;;1.33;100.00
32033;BME280;31720;52.638;9.216;2023-01-26T14:59:35;101948.53;;;1.33;100.00
32033;BME280;31720;52.638;9.216;2023-01-26T15:02:42;101941.66;;;1.37;100.00
32033;BME280;31720;52.638;9.216;2023-01-26T15:05:45;101949.41;;;1.38;100.00
32033;BME280;31720;52.638;9.216;2023-01-26T15:08:56;101955.47;;;1.40;100.00
32033;BME280;31720;52.638;9.216;2023-01-26T15:11:58;101952.00;;;1.35;100.00
32033;BME280;31720;52.638;9.216;2023-01-26T15:15:19;101945.06;;;1.28;100.00
32033;BME280;31720;52.638;9.216;2023-01-26T15:18:21;101951.09;;;1.25;100.00
32033;BME280;31720;52.638;9.216;2023-01-26T15:21:30;101942.47;;;1.28;100.00
32033;BME280;31720;52.638;9.216;2023-01-26T15:24:32;101945.88;;;1.22;100.00
32033;BME280;31720;52.638;9.216;2023-01-26T15:27:35;101941.59;;;1.18;100.00
32033;BME280;31720;52.638;9.216;2023-01-26T15:30:36;101948.47;;;1.21;100.00
32033;BME280;31720;52.638;9.216;2023-01-26T15:33:43;101945.06;;;1.23;100.00
32033;BME280;31720;52.638;9.216;2023-01-26T15:36:50;101940.72;;;1.22;100.00
32033;BME280;31720;52.638;9.216;2023-01-26T15:39:51;101945.91;;;1.19;100.00
32033;BME280;31720;52.638;9.216;2023-01-26T15:43:04;101945.03;;;1.20;100.00
32033;BME280;31720;52.638;9.216;2023-01-26T15:46:07;101945.03;;;1.22;100.00
32033;BME280;31720;52.638;9.216;2023-01-26T15:49:10;101939.84;;;1.14;100.00
32033;BME280;31720;52.638;9.216;2023-01-26T15:52:14;101938.09;;;1.10;100.00
32033;BME280;31720;52.638;9.216;2023-01-26T15:55:19;101941.56;;;1.14;100.00
32033;BME280;31720;52.638;9.216;2023-01-26T15:58:21;101937.25;;;1.17;100.00